createdAt,value
2022-09-28T00:02:09.632Z,1.40
2022-09-28T00:05:13.172Z,0.77
2022-09-28T00:08:17.475Z,1.03
2022-09-28T00:11:22.037Z,0.90
2022-09-28T00:14:25.213Z,1.03
2022-09-28T00:17:28.254Z,0.90
2022-09-28T00:20:31.238Z,1.20
2022-09-28T00:23:56.777Z,1.10
2022-09-28T00:27:01.648Z,1.60
2022-09-28T00:30:05.069Z,1.43
2022-09-28T00:33:07.996Z,1.40
2022-09-28T00:36:10.652Z,0.90
2022-09-28T00:39:16.873Z,1.70
2022-09-28T00:42:21.129Z,1.30
2022-09-28T00:45:26.756Z,2.90
2022-09-28T00:48:33.991Z,2.23
2022-09-28T00:51:39.342Z,1.60
2022-09-28T00:54:46.925Z,1.47
2022-09-28T00:57:55.553Z,1.40
2022-09-28T01:01:00.042Z,1.10
2022-09-28T01:04:05.229Z,0.97
2022-09-28T01:07:10.116Z,1.00
2022-09-28T01:10:15.487Z,1.10
2022-09-28T01:13:19.827Z,1.47
2022-09-28T01:16:32.358Z,1.53
2022-09-28T01:20:07.806Z,1.00
2022-09-28T01:23:30.368Z,1.20
2022-09-28T01:26:47.998Z,1.50
2022-09-28T01:29:58.038Z,1.03
2022-09-28T01:33:07.331Z,1.40
2022-09-28T01:36:14.878Z,1.10
2022-09-28T01:39:22.834Z,1.00
2022-09-28T01:42:32.436Z,1.00
2022-09-28T01:45:42.962Z,0.87
2022-09-28T01:48:52.049Z,0.97
2022-09-28T01:52:02.439Z,0.70
2022-09-28T01:55:11.703Z,0.60
2022-09-28T01:58:20.265Z,0.40
2022-09-28T02:01:28.205Z,0.70
2022-09-28T02:04:36.068Z,0.83
2022-09-28T02:07:42.800Z,0.50
2022-09-28T02:10:52.807Z,0.60
2022-09-28T02:14:02.003Z,0.60
2022-09-28T02:17:05.498Z,0.50
2022-09-28T02:20:10.290Z,0.60
2022-09-28T02:23:13.085Z,0.73
2022-09-28T02:26:20.221Z,0.67
2022-09-28T02:29:25.002Z,1.00
2022-09-28T02:32:29.838Z,0.50
2022-09-28T02:35:35.361Z,2.70
2022-09-28T02:38:39.297Z,7.90
2022-09-28T02:41:55.867Z,6.23
2022-09-28T02:45:13.843Z,3.50
2022-09-28T02:48:42.761Z,2.03
2022-09-28T02:51:57.463Z,1.40
2022-09-28T02:55:25.158Z,1.23
2022-09-28T02:58:41.335Z,1.00
2022-09-28T03:01:59.468Z,0.90
2022-09-28T03:05:15.208Z,1.07
2022-09-28T03:08:24.665Z,1.47
2022-09-28T03:11:33.505Z,1.30
2022-09-28T03:14:36.770Z,2.23
2022-09-28T03:17:41.485Z,1.10
2022-09-28T03:20:44.501Z,0.90
2022-09-28T03:23:48.411Z,0.90
2022-09-28T03:26:51.099Z,0.90
2022-09-28T03:29:53.768Z,1.10
2022-09-28T03:33:02.479Z,1.10
2022-09-28T03:36:05.555Z,0.90
2022-09-28T03:39:08.564Z,0.77
2022-09-28T03:42:11.305Z,0.70
2022-09-28T03:45:14.472Z,0.70
2022-09-28T03:48:23.171Z,0.70
2022-09-28T03:51:27.460Z,0.47
2022-09-28T03:54:30.252Z,0.40
2022-09-28T03:57:33.425Z,0.40
2022-09-28T04:00:36.439Z,0.53
2022-09-28T04:03:40.792Z,0.70
2022-09-28T04:06:43.789Z,0.57
2022-09-28T04:09:46.429Z,0.63
2022-09-28T04:12:50.270Z,0.50
2022-09-28T04:15:54.519Z,1.00
2022-09-28T04:18:59.446Z,0.90
2022-09-28T04:22:02.666Z,1.20
2022-09-28T04:25:06.013Z,0.87
2022-09-28T04:28:27.731Z,1.00
2022-09-28T04:31:30.815Z,0.90
2022-09-28T04:34:37.869Z,1.43
2022-09-28T04:37:42.821Z,1.30
2022-09-28T04:40:45.881Z,0.90
2022-09-28T04:43:49.000Z,0.87
2022-09-28T04:46:52.123Z,0.90
2022-09-28T04:49:56.101Z,0.80
2022-09-28T04:52:59.097Z,0.90
2022-09-28T04:56:04.142Z,0.80
2022-09-28T04:59:07.047Z,0.63
2022-09-28T05:02:09.754Z,0.40
2022-09-28T05:05:14.017Z,0.70
2022-09-28T05:08:17.075Z,0.90
2022-09-28T05:11:21.352Z,0.80
2022-09-28T05:14:24.866Z,1.17
2022-09-28T05:17:27.542Z,0.90
2022-09-28T05:20:32.685Z,0.83
2022-09-28T05:23:35.342Z,1.20
2022-09-28T05:26:38.078Z,0.83
2022-09-28T05:29:40.750Z,8.83
2022-09-28T05:32:44.620Z,1.70
2022-09-28T05:35:53.354Z,0.90
2022-09-28T05:38:57.728Z,1.00
2022-09-28T05:42:00.359Z,0.70
2022-09-28T05:45:04.740Z,0.70
2022-09-28T05:48:07.468Z,0.93
2022-09-28T05:51:12.423Z,0.57
2022-09-28T05:54:15.533Z,0.60
2022-09-28T05:57:18.740Z,0.60
2022-09-28T06:00:21.390Z,0.60
2022-09-28T06:03:25.178Z,0.70
2022-09-28T06:06:29.170Z,0.70
2022-09-28T06:09:32.273Z,0.63
2022-09-28T06:12:35.595Z,1.13
2022-09-28T06:15:39.067Z,0.63
2022-09-28T06:18:42.905Z,0.50
2022-09-28T06:21:48.333Z,0.53
2022-09-28T06:24:51.386Z,0.30
2022-09-28T06:27:58.740Z,0.50
2022-09-28T06:31:02.536Z,0.47
2022-09-28T06:34:06.003Z,0.40
2022-09-28T06:37:09.994Z,0.60
2022-09-28T06:40:12.800Z,0.50
2022-09-28T06:43:16.529Z,0.50
2022-09-28T06:46:20.839Z,0.60
2022-09-28T06:49:23.860Z,0.87
2022-09-28T06:52:28.233Z,0.80
2022-09-28T06:55:31.563Z,0.67
2022-09-28T06:58:34.655Z,0.77
2022-09-28T07:01:37.687Z,0.93
2022-09-28T07:04:42.132Z,0.90
2022-09-28T07:07:46.164Z,1.00
2022-09-28T07:10:56.275Z,0.60
2022-09-28T07:13:59.053Z,1.00
2022-09-28T07:17:13.285Z,0.80
2022-09-28T07:20:19.426Z,0.70
2022-09-28T07:23:24.268Z,1.00
2022-09-28T07:26:26.960Z,0.90
2022-09-28T07:29:29.623Z,0.90
2022-09-28T07:32:34.883Z,0.70
2022-09-28T07:35:37.558Z,0.90
2022-09-28T07:38:41.802Z,0.80
2022-09-28T07:41:44.879Z,0.93
2022-09-28T07:44:47.739Z,0.90
2022-09-28T07:47:50.951Z,0.60
2022-09-28T07:50:56.765Z,0.90
2022-09-28T07:54:01.598Z,0.70
2022-09-28T07:57:04.270Z,0.70
2022-09-28T08:00:09.042Z,0.80
2022-09-28T08:03:11.711Z,0.90
2022-09-28T08:06:17.070Z,0.60
2022-09-28T08:09:21.248Z,0.50
2022-09-28T08:12:23.928Z,0.70
2022-09-28T08:15:27.580Z,0.60
2022-09-28T08:18:30.488Z,0.60
2022-09-28T08:21:47.739Z,0.70
2022-09-28T08:24:51.772Z,0.73
2022-09-28T08:27:56.816Z,0.47
2022-09-28T08:31:01.978Z,0.53
2022-09-28T08:34:05.268Z,0.50
2022-09-28T08:37:09.510Z,0.60
2022-09-28T08:40:19.921Z,0.80
2022-09-28T08:43:39.651Z,0.57
2022-09-28T08:46:46.809Z,0.60
2022-09-28T08:49:51.018Z,0.77
2022-09-28T08:52:58.408Z,0.43
2022-09-28T08:56:07.158Z,0.50
2022-09-28T08:59:14.302Z,0.47
2022-09-28T09:02:22.327Z,0.60
2022-09-28T09:05:43.772Z,0.50
2022-09-28T09:09:00.092Z,0.40
2022-09-28T09:12:11.799Z,0.70
2022-09-28T09:15:30.210Z,0.57
2022-09-28T09:18:38.505Z,0.47
2022-09-28T09:21:42.868Z,0.50
2022-09-28T09:24:51.585Z,0.67
2022-09-28T09:28:09.455Z,0.73
2022-09-28T09:31:27.139Z,0.70
2022-09-28T09:35:00.144Z,0.73
2022-09-28T09:38:16.204Z,0.53
2022-09-28T09:41:33.730Z,0.70
2022-09-28T09:44:55.078Z,0.50
2022-09-28T09:48:01.690Z,0.40
2022-09-28T09:51:14.041Z,0.53
2022-09-28T09:54:25.485Z,0.63
2022-09-28T09:57:33.223Z,0.53
2022-09-28T10:00:40.890Z,0.60
2022-09-28T10:03:46.393Z,0.50
2022-09-28T10:06:52.672Z,1.53
2022-09-28T10:09:59.257Z,0.53
2022-09-28T10:13:02.703Z,1.67
2022-09-28T10:16:08.071Z,1.70
2022-09-28T10:19:13.451Z,1.50
2022-09-28T10:22:21.774Z,0.50
2022-09-28T10:25:25.263Z,0.43
2022-09-28T10:28:36.667Z,0.50
2022-09-28T10:31:43.052Z,0.67
2022-09-28T10:34:50.185Z,0.60
2022-09-28T10:37:59.388Z,0.50
2022-09-28T10:41:10.331Z,0.40
2022-09-28T10:44:18.888Z,0.50
2022-09-28T10:47:25.263Z,0.60
2022-09-28T10:50:29.485Z,0.40
2022-09-28T10:53:32.456Z,0.63
2022-09-28T10:56:38.498Z,2.00
2022-09-28T10:59:43.080Z,0.90
2022-09-28T11:02:47.396Z,0.60
2022-09-28T11:05:58.896Z,0.60
2022-09-28T11:09:04.606Z,0.60
2022-09-28T11:12:14.782Z,2.30
2022-09-28T11:15:20.247Z,1.87
2022-09-28T11:18:29.625Z,0.57
2022-09-28T11:21:43.302Z,0.90
2022-09-28T11:24:45.991Z,0.53
2022-09-28T11:27:58.210Z,0.63
2022-09-28T11:31:02.586Z,0.60
2022-09-28T11:34:15.888Z,0.40
2022-09-28T11:37:40.229Z,0.60
2022-09-28T11:40:55.447Z,0.50
2022-09-28T11:44:12.997Z,0.70
2022-09-28T11:47:34.501Z,0.60
2022-09-28T11:50:47.774Z,0.90
2022-09-28T11:53:53.771Z,0.63
2022-09-28T11:57:00.874Z,0.60
2022-09-28T12:00:08.391Z,0.60
2022-09-28T12:03:16.161Z,0.67
2022-09-28T12:06:26.267Z,0.60
2022-09-28T12:09:40.169Z,0.70
2022-09-28T12:12:49.040Z,0.67
2022-09-28T12:16:38.464Z,0.60
2022-09-28T12:19:25.899Z,0.67
2022-09-28T12:22:36.452Z,0.50
2022-09-28T12:25:46.207Z,0.53
2022-09-28T12:28:51.443Z,0.40
2022-09-28T12:32:02.720Z,0.50
2022-09-28T12:35:12.824Z,0.40
2022-09-28T12:38:39.816Z,0.40
2022-09-28T12:41:55.981Z,0.60
2022-09-28T12:45:18.920Z,0.33
2022-09-28T12:49:03.033Z,0.50
2022-09-28T12:52:27.957Z,0.67
2022-09-28T12:55:52.169Z,0.60
2022-09-28T12:59:07.550Z,1.20
2022-09-28T13:02:38.432Z,0.60
2022-09-28T13:06:09.805Z,0.50
2022-09-28T13:09:20.515Z,0.70
2022-09-28T13:12:35.921Z,0.50
2022-09-28T13:15:49.036Z,0.60
2022-09-28T13:19:01.721Z,0.73
2022-09-28T13:22:26.088Z,0.60
2022-09-28T13:25:32.604Z,0.67
2022-09-28T13:28:38.325Z,0.70
2022-09-28T13:31:45.713Z,0.57
2022-09-28T13:34:51.281Z,0.70
2022-09-28T13:38:27.196Z,0.50
2022-09-28T13:41:32.442Z,0.70
2022-09-28T13:44:55.137Z,1.10
2022-09-28T13:48:14.704Z,0.47
2022-09-28T13:51:32.109Z,0.73
2022-09-28T13:54:54.601Z,0.80
2022-09-28T13:58:01.620Z,0.70
2022-09-28T14:01:11.461Z,0.50
2022-09-28T14:04:19.453Z,0.63
2022-09-28T14:07:25.572Z,0.63
2022-09-28T14:10:52.001Z,0.47
2022-09-28T14:14:07.225Z,0.80
2022-09-28T14:17:54.687Z,0.60
2022-09-28T14:21:36.044Z,0.57
2022-09-28T14:25:04.395Z,0.80
2022-09-28T14:28:26.950Z,0.43
2022-09-28T14:31:31.198Z,0.50
2022-09-28T14:34:36.477Z,0.50
2022-09-28T14:38:00.759Z,0.30
2022-09-28T14:41:12.808Z,0.40
2022-09-28T14:44:17.277Z,0.60
2022-09-28T14:47:35.180Z,0.60
2022-09-28T14:50:39.005Z,0.70
2022-09-28T14:53:43.331Z,0.60
2022-09-28T14:56:57.053Z,0.70
2022-09-28T15:00:01.011Z,0.50
2022-09-28T15:03:11.416Z,0.40
2022-09-28T15:06:16.856Z,0.30
2022-09-28T15:09:29.298Z,0.50
2022-09-28T15:12:32.486Z,0.70
2022-09-28T15:15:38.591Z,0.27
2022-09-28T15:19:04.104Z,0.60
2022-09-28T15:22:15.855Z,0.67
2022-09-28T15:25:21.832Z,0.50
2022-09-28T15:28:25.301Z,0.63
2022-09-28T15:31:31.844Z,0.60
2022-09-28T15:34:54.724Z,0.60
2022-09-28T15:37:57.768Z,0.60
2022-09-28T15:41:04.653Z,0.40
2022-09-28T15:44:32.967Z,0.43
2022-09-28T15:47:40.082Z,0.57
2022-09-28T15:50:58.042Z,0.90
2022-09-28T15:54:04.313Z,0.50
2022-09-28T15:57:30.012Z,0.63
2022-09-28T16:00:33.305Z,1.00
2022-09-28T16:03:35.945Z,0.70
2022-09-28T16:06:38.629Z,1.20
2022-09-28T16:09:55.663Z,0.90
2022-09-28T16:13:15.707Z,0.80
2022-09-28T16:16:18.607Z,0.97
2022-09-28T16:19:25.348Z,0.93
2022-09-28T16:22:28.987Z,1.00
2022-09-28T16:25:31.789Z,0.70
2022-09-28T16:28:52.876Z,0.90
2022-09-28T16:31:55.698Z,0.90
2022-09-28T16:35:23.065Z,0.60
2022-09-28T16:38:25.752Z,0.60
2022-09-28T16:41:30.292Z,0.70
2022-09-28T16:44:35.834Z,1.70
2022-09-28T16:47:39.502Z,0.60
2022-09-28T16:50:42.134Z,0.80
2022-09-28T16:54:02.913Z,0.70
2022-09-28T16:57:07.542Z,1.50
2022-09-28T17:00:19.638Z,1.00
2022-09-28T17:03:23.438Z,1.27
2022-09-28T17:06:27.470Z,1.20
2022-09-28T17:09:30.136Z,0.70
2022-09-28T17:12:32.813Z,2.40
2022-09-28T17:15:37.542Z,2.33
2022-09-28T17:18:40.505Z,2.03
2022-09-28T17:21:43.187Z,2.60
2022-09-28T17:24:46.738Z,2.00
2022-09-28T17:27:50.461Z,1.90
2022-09-28T17:30:55.050Z,2.10
2022-09-28T17:33:58.464Z,2.30
2022-09-28T17:37:01.288Z,2.63
2022-09-28T17:40:13.708Z,2.73
2022-09-28T17:43:16.346Z,3.30
2022-09-28T17:46:28.470Z,4.13
2022-09-28T17:49:31.165Z,4.97
2022-09-28T17:52:33.887Z,3.77
2022-09-28T17:55:38.280Z,3.40
2022-09-28T17:58:41.927Z,2.73
2022-09-28T18:01:48.643Z,4.70
2022-09-28T18:04:52.768Z,4.57
2022-09-28T18:07:58.942Z,3.57
2022-09-28T18:11:03.471Z,4.00
2022-09-28T18:14:11.070Z,3.07
2022-09-28T18:17:21.796Z,2.90
2022-09-28T18:20:25.151Z,3.20
2022-09-28T18:23:31.681Z,3.50
2022-09-28T18:26:35.138Z,3.40
2022-09-28T18:29:38.121Z,3.37
2022-09-28T18:32:42.451Z,2.67
2022-09-28T18:36:10.992Z,2.33
2022-09-28T18:39:14.421Z,2.63
2022-09-28T18:42:17.132Z,2.70
2022-09-28T18:45:20.089Z,2.50
2022-09-28T18:48:27.692Z,2.37
2022-09-28T18:51:30.569Z,3.87
2022-09-28T18:54:33.452Z,4.20
2022-09-28T18:57:36.903Z,3.30
2022-09-28T19:00:40.466Z,2.67
2022-09-28T19:03:44.813Z,3.03
2022-09-28T19:06:51.742Z,3.23
2022-09-28T19:09:54.489Z,6.10
2022-09-28T19:12:57.420Z,5.67
2022-09-28T19:16:00.525Z,5.30
2022-09-28T19:19:06.619Z,11.37
2022-09-28T19:22:09.758Z,6.93
2022-09-28T19:25:13.612Z,5.77
2022-09-28T19:28:16.301Z,6.30
2022-09-28T19:31:19.349Z,5.57
2022-09-28T19:34:24.360Z,3.90
2022-09-28T19:37:27.202Z,3.93
2022-09-28T19:40:30.153Z,4.73
2022-09-28T19:43:34.940Z,4.70
2022-09-28T19:46:40.416Z,3.97
2022-09-28T19:49:44.992Z,5.00
2022-09-28T19:52:47.794Z,4.40
2022-09-28T19:55:52.773Z,7.20
2022-09-28T19:58:55.556Z,8.50
2022-09-28T20:02:01.315Z,5.90
2022-09-28T20:05:06.346Z,11.60
2022-09-28T20:08:09.742Z,11.53
2022-09-28T20:11:13.168Z,5.40
2022-09-28T20:14:16.173Z,9.27
2022-09-28T20:17:19.261Z,5.87
2022-09-28T20:20:23.426Z,5.07
2022-09-28T20:23:27.303Z,3.80
2022-09-28T20:26:30.454Z,3.07
2022-09-28T20:29:33.748Z,3.40
2022-09-28T20:32:36.978Z,5.00
2022-09-28T20:35:44.228Z,5.50
2022-09-28T20:38:48.717Z,5.50
2022-09-28T20:41:51.715Z,4.23
2022-09-28T20:44:54.466Z,3.10
2022-09-28T20:47:57.179Z,5.77
2022-09-28T20:51:03.156Z,5.20
2022-09-28T20:54:06.389Z,2.50
2022-09-28T20:57:17.548Z,3.80
2022-09-28T21:00:20.495Z,3.50
2022-09-28T21:03:23.559Z,3.03
2022-09-28T21:06:29.451Z,2.83
2022-09-28T21:09:33.319Z,3.10
2022-09-28T21:12:37.149Z,3.00
2022-09-28T21:15:39.882Z,2.87
2022-09-28T21:18:43.639Z,3.13
2022-09-28T21:21:48.423Z,3.90
2022-09-28T21:24:51.474Z,4.23
2022-09-28T21:27:54.497Z,5.50
2022-09-28T21:30:57.502Z,3.70
2022-09-28T21:34:00.508Z,3.63
2022-09-28T21:37:04.853Z,3.57
2022-09-28T21:40:10.146Z,3.33
2022-09-28T21:43:13.131Z,3.90
2022-09-28T21:46:15.970Z,3.70
2022-09-28T21:49:18.712Z,3.47
2022-09-28T21:52:23.029Z,2.80
2022-09-28T21:55:26.133Z,2.67
2022-09-28T21:58:31.049Z,2.57
2022-09-28T22:01:34.132Z,3.00
2022-09-28T22:04:36.872Z,3.43
2022-09-28T22:07:42.654Z,2.97
2022-09-28T22:10:45.509Z,2.67
2022-09-28T22:13:50.339Z,2.57
2022-09-28T22:16:53.206Z,2.70
2022-09-28T22:19:56.242Z,2.53
2022-09-28T22:23:00.623Z,2.90
2022-09-28T22:26:08.291Z,2.53
2022-09-28T22:29:11.815Z,2.83
2022-09-28T22:32:14.549Z,2.93
2022-09-28T22:35:17.654Z,4.10
2022-09-28T22:38:24.061Z,3.57
2022-09-28T22:41:27.233Z,4.13
2022-09-28T22:44:30.104Z,4.90
2022-09-28T22:47:32.865Z,4.47
2022-09-28T22:50:35.961Z,3.30
2022-09-28T22:53:40.200Z,2.80
2022-09-28T22:56:44.556Z,2.60
2022-09-28T22:59:47.717Z,2.70
2022-09-28T23:02:50.447Z,2.33
2022-09-28T23:05:54.349Z,2.53
2022-09-28T23:08:58.549Z,2.53
2022-09-28T23:12:01.584Z,3.63
2022-09-28T23:15:04.719Z,3.43
2022-09-28T23:18:08.427Z,4.13
2022-09-28T23:21:15.112Z,4.40
2022-09-28T23:24:19.412Z,4.43
2022-09-28T23:27:22.103Z,2.67
2022-09-28T23:30:25.224Z,4.27
2022-09-28T23:33:28.009Z,3.97
2022-09-28T23:36:31.474Z,3.20
2022-09-28T23:39:35.464Z,4.30
2022-09-28T23:42:38.202Z,3.17
2022-09-28T23:45:42.323Z,3.60
2022-09-28T23:48:44.994Z,3.27
2022-09-28T23:51:48.130Z,3.93
2022-09-28T23:54:52.157Z,3.80
2022-09-28T23:57:56.959Z,2.97
